Time;durP1;ratioP1;P1;durP2;ratioP2;P2;SDS_P1;SDS_P2;PMS_P1;PMS_P2;Temp;Humidity;BMP_temperature;BMP_pressure;BME280_temperature;BME280_humidity;BME280_pressure;Samples;Min_cycle;Max_cycle;Signal;HPM_P1;HPM_P2
2023/01/03 00:02:06;;;;;;;13.60;9.23;;;;;;;12.65;67.77;102457.92;1755963;80;21522;-58
2023/01/03 00:04:32;;;;;;;20.62;10.10;;;;;;;12.66;67.67;102457.03;1755167;80;21085;-57
2023/01/03 00:06:59;;;;;;;19.57;10.53;;;;;;;12.64;67.69;102457.05;1758272;80;21487;-57
2023/01/03 00:09:27;;;;;;;14.83;9.58;;;;;;;12.64;67.64;102454.43;1766429;80;21054;-57
2023/01/03 00:14:42;;;;;;;14.53;10.05;;;;;;;12.64;67.57;102455.73;1751862;80;20993;-59
2023/01/03 00:17:10;;;;;;;18.05;9.70;;;;;;;12.64;67.47;102446.59;1767696;80;21026;-57
2023/01/03 00:19:42;;;;;;;14.75;10.08;;;;;;;12.64;67.44;102449.20;1769546;80;21510;-57
2023/01/03 00:22:10;;;;;;;13.30;9.43;;;;;;;12.64;67.26;102446.59;1770746;80;21006;-60
2023/01/03 00:24:37;;;;;;;12.95;9.10;;;;;;;12.66;67.18;102440.92;1757073;80;21044;-58
2023/01/03 00:27:04;;;;;;;15.70;9.53;;;;;;;12.67;67.07;102440.50;1753674;81;21011;-58
2023/01/03 00:29:30;;;;;;;12.20;9.20;;;;;;;12.66;66.99;102439.63;1762459;80;21037;-58
2023/01/03 00:31:57;;;;;;;14.50;9.00;;;;;;;12.67;66.91;102430.05;1753734;80;21573;-58
2023/01/03 00:34:25;;;;;;;18.95;9.85;;;;;;;12.67;66.87;102438.77;1752858;80;21038;-58
2023/01/03 00:36:52;;;;;;;14.85;9.85;;;;;;;12.68;66.74;102434.38;1762722;80;21696;-58
2023/01/03 00:39:19;;;;;;;24.27;11.15;;;;;;;12.70;66.58;102432.64;1768611;80;21090;-58
2023/01/03 00:41:47;;;;;;;22.15;10.65;;;;;;;12.72;66.43;102425.66;1758028;80;21002;-58
2023/01/03 00:44:14;;;;;;;14.95;9.48;;;;;;;12.72;66.33;102430.45;1763297;80;21513;-58
2023/01/03 00:46:40;;;;;;;16.35;9.85;;;;;;;12.72;66.30;102423.05;1754782;80;21043;-58
2023/01/03 00:49:07;;;;;;;13.75;9.55;;;;;;;12.72;66.22;102425.23;1776658;80;21066;-59
2023/01/03 00:51:36;;;;;;;20.97;9.93;;;;;;;12.72;66.16;102417.83;1756520;80;21540;-58
2023/01/03 00:54:04;;;;;;;17.52;10.03;;;;;;;12.72;66.05;102416.09;1754601;80;21065;-58
2023/01/03 00:56:36;;;;;;;16.97;10.25;;;;;;;12.72;65.99;102414.78;1751413;80;21046;-58
2023/01/03 00:59:03;;;;;;;23.32;10.48;;;;;;;12.74;65.93;102417.38;1750431;80;20989;-58
2023/01/03 01:01:33;;;;;;;15.60;10.53;;;;;;;12.74;65.87;102411.73;1770920;80;21482;-58
2023/01/03 01:04:11;;;;;;;18.87;9.85;;;;;;;12.73;65.87;102413.92;1758220;80;21042;-58
2023/01/03 01:06:42;;;;;;;15.80;9.75;;;;;;;12.72;65.84;102408.25;1649146;85;21546;-58
2023/01/03 01:09:12;;;;;;;14.15;9.90;;;;;;;12.72;65.84;102408.25;1647409;85;21391;-58
2023/01/03 01:11:40;;;;;;;;;;;;;;;12.72;65.80;102404.34;1609630;87;21941;-58
2023/01/03 01:14:18;;;;;;;18.07;11.25;;;;;;;12.75;65.72;102399.55;1598014;87;20146;-58
2023/01/03 01:16:36;;;;;;;16.23;9.98;;;;;;;12.74;65.63;102405.20;1589225;88;21881;-58
2023/01/03 01:19:03;;;;;;;28.25;12.78;;;;;;;12.76;65.56;102401.27;1599168;88;21125;-58
2023/01/03 01:21:30;;;;;;;15.85;10.80;;;;;;;12.76;65.41;102396.92;1592761;89;21080;-58
2023/01/03 01:23:58;;;;;;;15.88;10.63;;;;;;;12.79;65.35;102397.34;1599535;88;21053;-58
2023/01/03 01:26:25;;;;;;;17.60;9.70;;;;;;;12.79;65.28;102396.92;1594843;88;21044;-58
2023/01/03 01:28:52;;;;;;;14.73;9.95;;;;;;;12.79;65.25;102394.30;1597676;88;21118;-57
2023/01/03 01:31:22;;;;;;;15.53;11.00;;;;;;;12.78;65.25;102388.63;1593529;88;21073;-58
2023/01/03 01:33:49;;;;;;;19.15;10.53;;;;;;;12.78;65.20;102387.33;1592980;88;21078;-58
2023/01/03 01:36:23;;;;;;;18.15;11.10;;;;;;;12.79;65.17;102381.67;1594516;89;21098;-58
2023/01/03 01:38:56;;;;;;;14.70;10.78;;;;;;;12.80;65.03;102380.35;1592807;88;21031;-58
2023/01/03 01:44:45;;;;;;;20.15;11.20;;;;;;;12.78;64.95;102378.19;1587525;88;21146;-58
2023/01/03 01:47:53;;;;;;;19.45;10.63;;;;;;;12.79;64.99;102377.75;1613081;87;21132;-58
2023/01/03 01:50:39;;;;;;;15.20;10.82;;;;;;;12.78;65.04;102369.05;1605532;87;21625;-58
2023/01/03 01:53:21;;;;;;;17.95;10.53;;;;;;;12.79;64.98;102362.08;1617638;88;21095;-58
2023/01/03 01:55:52;;;;;;;17.17;11.05;;;;;;;12.80;64.94;102360.76;1625114;88;21090;-59
2023/01/03 01:58:21;;;;;;;16.90;10.88;;;;;;;12.79;64.84;102360.34;1621082;87;21080;-57
2023/01/03 02:00:47;;;;;;;16.82;10.60;;;;;;;12.79;64.86;102362.08;1621150;88;21110;-58
2023/01/03 02:03:14;;;;;;;20.65;11.95;;;;;;;12.79;64.87;102359.47;1610853;87;21168;-58
2023/01/03 02:05:48;;;;;;;17.23;11.40;;;;;;;12.79;64.88;102361.66;1620637;88;21079;-58
2023/01/03 02:08:16;;;;;;;18.85;12.37;;;;;;;12.79;64.86;102361.66;1636671;85;21513;-58
2023/01/03 02:10:51;;;;;;;16.87;12.45;;;;;;;12.80;64.84;102362.50;1669506;85;21172;-58
2023/01/03 02:13:41;;;;;;;19.32;12.88;;;;;;;12.79;64.84;102364.27;1655298;85;21521;-58
2023/01/03 02:16:25;;;;;;;20.97;12.37;;;;;;;12.80;64.81;102369.91;1681016;85;21102;-58
2023/01/03 02:19:42;;;;;;;19.70;12.45;;;;;;;12.77;64.82;102358.18;1681106;84;21058;-58
2023/01/03 02:22:42;;;;;;;18.87;13.35;;;;;;;12.77;64.86;102359.48;1664155;85;21540;-58
2023/01/03 02:25:41;;;;;;;24.23;12.95;;;;;;;12.76;64.94;102356.43;1691677;84;21545;-58
2023/01/03 02:28:34;;;;;;;19.25;13.83;;;;;;;12.77;64.92;102352.95;1655758;84;21641;-58
2023/01/03 02:31:45;;;;;;;16.65;12.80;;;;;;;12.77;64.98;102351.66;1669761;85;21082;-58
2023/01/03 02:34:49;;;;;;;18.40;12.73;;;;;;;12.76;64.90;102352.51;1668417;84;21102;-58
2023/01/03 02:37:43;;;;;;;18.07;13.40;;;;;;;12.75;64.97;102350.80;1678796;81;22351;-58
2023/01/03 02:40:21;;;;;;;21.77;13.20;;;;;;;12.75;65.03;102353.83;1781675;80;21526;-58
2023/01/03 02:42:56;;;;;;;22.15;13.70;;;;;;;12.75;65.05;102349.92;1776559;80;21042;-58
2023/01/03 02:45:57;;;;;;;22.17;13.45;;;;;;;12.75;65.11;102354.71;1761199;80;21003;-58
2023/01/03 02:48:44;;;;;;;20.65;14.28;;;;;;;12.76;65.12;102356.43;1743542;80;21096;-58
2023/01/03 02:51:16;;;;;;;20.20;13.15;;;;;;;12.76;65.07;102352.51;1754720;80;21148;-58
2023/01/03 02:53:46;;;;;;;17.20;13.00;;;;;;;12.75;64.98;102350.80;1754007;80;21510;-58
2023/01/03 02:56:18;;;;;;;15.83;12.40;;;;;;;12.76;64.90;102345.98;1761768;80;21013;-58
2023/01/03 02:58:47;;;;;;;25.45;15.28;;;;;;;12.75;64.68;102340.34;1760997;80;21027;-58
2023/01/03 03:01:15;;;;;;;17.82;13.53;;;;;;;12.72;64.66;102335.13;1768863;80;21034;-58
2023/01/03 03:03:42;;;;;;;20.10;13.38;;;;;;;12.70;64.55;102336.00;1719998;80;21585;-58
2023/01/03 03:06:31;;;;;;;22.50;13.35;;;;;;;12.69;64.49;102337.77;1732549;82;21015;-58
2023/01/03 03:08:59;;;;;;;28.27;14.15;;;;;;;12.68;64.44;102336.45;1692989;83;21162;-58
2023/01/03 03:14:38;;;;;;;30.23;14.53;;;;;;;12.67;64.34;102329.08;1638295;86;21027;-58
2023/01/03 03:17:22;;;;;;;25.02;14.78;;;;;;;12.69;64.33;102331.67;1661437;84;21149;-58
2023/01/03 03:25:46;;;;;;;27.32;14.55;;;;;;;12.72;64.34;102335.55;1565396;89;21154;-58
2023/01/03 03:28:33;;;;;;;29.87;15.35;;;;;;;12.70;64.51;102326.42;1571672;89;21160;-58
2023/01/03 03:31:07;;;;;;;24.40;14.28;;;;;;;12.69;64.71;102324.70;1576474;88;21073;-58
2023/01/03 03:33:38;;;;;;;26.40;14.53;;;;;;;12.70;64.93;102321.20;1575356;89;21109;-59
2023/01/03 03:36:11;;;;;;;23.80;15.65;;;;;;;12.71;65.09;102328.61;1571919;88;21115;-58
2023/01/03 03:38:43;;;;;;;19.98;13.85;;;;;;;12.71;65.17;102322.08;1527118;92;21150;-57
2023/01/03 03:47:38;;;;;;;22.40;14.80;;;;;;;12.72;65.32;102320.76;1497436;93;21154;-57
2023/01/03 03:50:19;;;;;;;24.52;14.68;;;;;;;12.70;65.45;102315.11;1507851;93;21137;-57
2023/01/03 03:52:48;;;;;;;28.73;15.28;;;;;;;12.70;65.56;102309.45;1505467;94;21652;-57
2023/01/03 03:55:22;;;;;;;20.70;15.25;;;;;;;12.71;65.52;102311.63;1531824;92;21089;-57
2023/01/03 03:57:54;;;;;;;22.73;15.15;;;;;;;12.72;65.55;102309.00;1498545;92;21078;-57
2023/01/03 04:00:25;;;;;;;20.30;15.30;;;;;;;12.73;65.58;102313.37;1518311;92;21131;-57
2023/01/03 04:02:52;;;;;;;22.37;15.15;;;;;;;12.73;65.57;102318.59;1532407;92;21098;-57
2023/01/03 04:05:21;;;;;;;24.65;16.00;;;;;;;12.74;65.61;102305.94;1529320;92;21139;-57
2023/01/03 04:07:47;;;;;;;34.05;16.32;;;;;;;12.74;65.59;102303.33;1511557;93;22017;-57
2023/01/03 04:10:18;;;;;;;22.13;16.10;;;;;;;12.75;65.58;102304.20;1528366;92;21169;-57
2023/01/03 04:12:43;;;;;;;22.98;15.30;;;;;;;12.76;65.65;102304.63;1533903;92;21129;-57
2023/01/03 04:15:11;;;;;;;17.42;14.98;;;;;;;12.75;65.67;102303.78;1522805;92;21600;-57
2023/01/03 04:17:38;;;;;;;23.30;16.23;;;;;;;12.76;65.71;102314.64;1535172;92;21816;-57
2023/01/03 04:20:06;;;;;;;23.95;15.98;;;;;;;12.76;65.77;102310.72;1555586;90;21112;-57
2023/01/03 04:22:32;;;;;;;24.07;16.32;;;;;;;12.76;65.75;102310.72;1631340;86;21072;-59
2023/01/03 04:24:59;;;;;;;26.70;16.77;;;;;;;12.78;65.79;102314.62;1652357;86;21070;-57
2023/01/03 04:27:25;;;;;;;25.43;16.80;;;;;;;12.78;65.78;102314.62;1637964;85;21577;-57
2023/01/03 04:29:53;;;;;;;24.10;15.88;;;;;;;12.79;65.76;102312.45;1617302;88;21675;-57
2023/01/03 04:32:19;;;;;;;23.83;15.93;;;;;;;12.78;65.81;102316.80;1634836;85;21045;-57
2023/01/03 04:34:46;;;;;;;20.68;15.88;;;;;;;12.78;65.87;102316.80;1646019;85;21033;-57
2023/01/03 04:37:14;;;;;;;22.07;16.52;;;;;;;12.77;65.92;102312.47;1670195;84;21065;-57
2023/01/03 04:39:40;;;;;;;23.85;16.77;;;;;;;12.74;66.04;102312.47;1683100;84;21069;-57
2023/01/03 04:44:52;;;;;;;21.25;15.88;;;;;;;12.78;66.03;102313.31;1690788;84;21076;-57
2023/01/03 04:47:19;;;;;;;21.93;16.50;;;;;;;12.78;65.92;102314.62;1695968;84;21061;-57
2023/01/03 04:49:46;;;;;;;21.68;16.15;;;;;;;12.78;66.08;102317.23;1734541;80;21114;-57
2023/01/03 04:52:14;;;;;;;27.70;17.70;;;;;;;12.77;66.21;102315.52;1765169;80;20983;-57
2023/01/03 04:54:41;;;;;;;25.70;16.45;;;;;;;12.77;66.18;102309.86;1749673;80;21513;-57
2023/01/03 04:57:08;;;;;;;24.70;17.87;;;;;;;12.78;66.20;102315.92;1746637;80;21078;-57
2023/01/03 04:59:37;;;;;;;24.43;18.55;;;;;;;12.78;66.23;102315.92;1760674;80;21051;-57
2023/01/03 05:02:03;;;;;;;22.98;16.73;;;;;;;12.78;66.28;102323.77;1750261;81;21030;-57
2023/01/03 05:04:31;;;;;;;24.20;17.65;;;;;;;12.78;66.37;102329.86;1754393;81;21072;-57
2023/01/03 05:06:58;;;;;;;27.80;18.00;;;;;;;12.79;66.32;102334.22;1755339;81;21078;-57
2023/01/03 05:09:27;;;;;;;21.80;16.40;;;;;;;12.79;66.30;102336.84;1768316;80;21066;-58
2023/01/03 05:11:54;;;;;;;27.27;17.95;;;;;;;12.80;66.29;102337.67;1776306;80;20998;-57
2023/01/03 05:14:21;;;;;;;25.80;17.48;;;;;;;12.79;66.23;102334.22;1766079;80;21070;-57
2023/01/03 05:16:47;;;;;;;23.42;17.52;;;;;;;12.80;66.27;102335.06;1759849;80;21030;-57
2023/01/03 05:19:14;;;;;;;24.07;18.12;;;;;;;12.79;66.19;102331.61;1755202;81;21530;-57
2023/01/03 05:25:48;;;;;;;27.60;18.27;;;;;;;12.77;66.33;102325.53;1763586;80;21028;-57
2023/01/03 05:27:03;;;;;;;27.77;17.15;;;;;;;12.77;66.45;102330.75;1754425;80;21050;-57
2023/01/03 05:29:30;;;;;;;25.90;18.10;;;;;;;12.77;66.50;102322.92;1738407;81;21067;-57
2023/01/03 05:31:58;;;;;;;25.82;18.20;;;;;;;12.78;66.57;102329.86;1762006;80;21530;-57
2023/01/03 05:34:25;;;;;;;28.38;19.70;;;;;;;12.79;66.70;102325.52;1762184;80;21045;-57
2023/01/03 05:36:52;;;;;;;27.85;19.15;;;;;;;12.78;66.80;102327.25;1766395;80;21070;-58
2023/01/03 05:39:20;;;;;;;26.10;19.05;;;;;;;12.78;66.92;102329.86;1757230;80;21046;-57
2023/01/03 05:41:58;;;;;;;25.85;18.65;;;;;;;12.77;67.00;102330.75;1770257;80;21104;-58
2023/01/03 05:44:29;;;;;;;27.75;20.25;;;;;;;12.78;67.04;102327.68;1761083;80;21030;-57
2023/01/03 05:46:57;;;;;;;25.55;18.90;;;;;;;12.77;67.19;102335.98;1770466;80;21045;-58
2023/01/03 05:49:24;;;;;;;27.55;18.48;;;;;;;12.77;67.30;102338.59;1764795;80;21485;-57
2023/01/03 05:51:50;;;;;;;31.75;20.57;;;;;;;12.78;67.35;102335.52;1756902;80;21014;-57
2023/01/03 05:54:20;;;;;;;28.40;20.23;;;;;;;12.78;67.49;102342.92;1758664;80;22242;-58
2023/01/03 05:56:46;;;;;;;26.50;19.67;;;;;;;12.76;67.45;102344.67;1758699;80;21022;-57
2023/01/03 05:59:13;;;;;;;26.23;19.67;;;;;;;12.77;67.59;102346.42;1758300;80;21041;-58
2023/01/03 06:01:39;;;;;;;28.20;19.50;;;;;;;12.78;67.59;102349.45;1755658;80;21095;-57
2023/01/03 06:04:06;;;;;;;31.30;20.70;;;;;;;12.79;67.69;102352.51;1762988;80;21534;-58
2023/01/03 06:06:33;;;;;;;30.80;20.88;;;;;;;12.80;67.75;102359.45;1747880;81;21052;-57
2023/01/03 06:09:00;;;;;;;37.65;21.15;;;;;;;12.82;67.74;102357.70;1765816;80;21027;-57
2023/01/03 06:11:28;;;;;;;35.17;21.40;;;;;;;12.82;67.86;102359.00;1752255;80;21053;-57
2023/01/03 06:13:55;;;;;;;30.75;20.32;;;;;;;12.85;67.83;102364.66;1757904;80;21066;-57
2023/01/03 06:19:07;;;;;;;25.43;19.90;;;;;;;12.88;67.73;102371.19;1751330;81;21612;-57
2023/01/03 06:21:34;;;;;;;28.42;20.68;;;;;;;12.90;67.83;102375.50;1759170;80;21512;-57
2023/01/03 06:24:01;;;;;;;29.92;22.10;;;;;;;12.94;67.77;102374.61;1763219;80;21069;-58
2023/01/03 06:26:28;;;;;;;29.75;20.57;;;;;;;12.98;67.42;102383.31;1756255;81;21074;-57
2023/01/03 06:28:54;;;;;;;29.12;20.30;;;;;;;13.01;67.19;102378.94;1766144;80;20970;-57
2023/01/03 06:31:21;;;;;;;27.93;20.30;;;;;;;13.03;66.69;102378.48;1750845;80;21054;-57
2023/01/03 06:33:47;;;;;;;26.17;20.55;;;;;;;13.04;66.27;102375.01;1767410;80;21074;-57
2023/01/03 06:36:17;;;;;;;27.70;22.22;;;;;;;13.05;65.88;102378.50;1762470;80;21565;-58
2023/01/03 06:38:44;;;;;;;40.35;29.23;;;;;;;13.03;65.54;102382.41;1764614;80;21011;-57
2023/01/03 06:41:13;;;;;;;30.90;21.40;;;;;;;13.03;65.55;102383.71;1773963;80;21054;-57
2023/01/03 06:43:40;;;;;;;44.75;32.08;;;;;;;13.03;65.42;102382.41;1769864;80;21026;-57
2023/01/03 06:54:33;;;;;;;24.10;18.17;;;;;;;13.06;65.22;102390.23;1751994;80;21046;-57
2023/01/03 06:57:00;;;;;;;22.93;17.95;;;;;;;13.08;65.21;102381.54;1715346;83;21104;-57
2023/01/03 06:59:27;;;;;;;22.15;18.05;;;;;;;13.09;65.16;102382.83;1704250;83;21542;-57
2023/01/03 07:01:53;;;;;;;22.05;18.25;;;;;;;13.11;65.16;102380.23;1716956;83;21584;-57
2023/01/03 07:04:21;;;;;;;23.65;18.07;;;;;;;13.14;65.08;102388.03;1714556;83;21080;-57
2023/01/03 07:06:48;;;;;;;23.98;17.92;;;;;;;13.16;64.92;102383.66;1715499;83;21077;-57
2023/01/03 07:09:15;;;;;;;22.85;18.40;;;;;;;13.18;64.83;102389.75;1714623;83;21119;-57
2023/01/03 07:11:42;;;;;;;24.77;20.57;;;;;;;13.20;64.63;102390.17;1716475;83;21073;-57
2023/01/03 07:14:09;;;;;;;33.20;26.05;;;;;;;13.23;64.58;102391.44;1713517;83;21125;-57
2023/01/03 07:16:43;;;;;;;24.12;19.62;;;;;;;13.26;64.42;102391.87;1710835;83;21090;-57
2023/01/03 07:19:13;;;;;;;29.42;22.82;;;;;;;13.28;64.27;102399.27;1715509;83;21093;-57
2023/01/03 07:21:41;;;;;;;24.67;21.87;;;;;;;13.29;64.21;102401.86;1710165;83;21603;-57
2023/01/03 07:24:11;;;;;;;28.07;20.85;;;;;;;13.31;64.18;102404.48;1714540;83;21093;-57
2023/01/03 07:26:37;;;;;;;23.12;19.73;;;;;;;13.32;64.11;102409.69;1715122;83;21047;-57
2023/01/03 07:29:07;;;;;;;22.42;18.73;;;;;;;13.34;64.04;102407.06;1714619;83;21086;-57
2023/01/03 07:31:33;;;;;;;22.02;17.67;;;;;;;13.38;64.03;102414.00;1707108;83;21646;-57
2023/01/03 07:34:00;;;;;;;21.05;17.15;;;;;;;13.42;63.85;102413.09;1714846;83;21193;-57
2023/01/03 07:36:27;;;;;;;22.48;18.02;;;;;;;13.43;63.73;102409.63;1715911;83;21083;-57
2023/01/03 07:38:54;;;;;;;23.57;18.07;;;;;;;13.47;63.81;102415.26;1717019;83;21488;-57
2023/01/03 07:41:21;;;;;;;23.45;18.92;;;;;;;13.49;63.76;102407.84;1714310;83;21110;-57
2023/01/03 07:43:48;;;;;;;20.85;17.48;;;;;;;13.54;63.69;102415.66;1710146;83;21060;-56
2023/01/03 07:46:21;;;;;;;23.27;19.35;;;;;;;13.57;63.76;102410.38;1716359;83;21013;-57
2023/01/03 07:48:50;;;;;;;21.07;18.75;;;;;;;13.60;63.60;102409.06;1702987;83;21028;-57
2023/01/03 07:51:19;;;;;;;21.12;17.95;;;;;;;13.64;63.46;102407.69;1712428;83;21058;-57
2023/01/03 07:53:51;;;;;;;22.62;18.67;;;;;;;13.68;63.45;102416.41;1735753;80;21073;-57
2023/01/03 07:56:20;;;;;;;22.42;17.45;;;;;;;13.71;63.25;102416.36;1754294;80;21022;-57
2023/01/03 07:58:47;;;;;;;23.75;18.15;;;;;;;13.72;63.32;102411.58;1766895;80;21030;-57
2023/01/03 08:01:22;;;;;;;24.05;18.10;;;;;;;13.75;63.06;102418.95;1784631;80;21018;-58
2023/01/03 08:03:48;;;;;;;26.35;19.77;;;;;;;13.79;63.04;102418.47;1752305;80;21028;-57
2023/01/03 08:06:21;;;;;;;25.60;20.52;;;;;;;13.83;62.85;102412.33;1768842;80;21479;-57
2023/01/03 08:13:16;;;;;;;23.80;19.32;;;;;;;13.86;62.77;102405.78;1755282;80;21462;-57
2023/01/03 08:14:03;;;;;;;21.60;17.42;;;;;;;13.93;62.28;102401.36;1763083;80;21510;-57
2023/01/03 08:16:29;;;;;;;25.20;17.87;;;;;;;13.95;62.01;102400.44;1758178;80;21023;-57
2023/01/03 08:18:56;;;;;;;20.50;17.20;;;;;;;13.97;61.76;102405.25;1749915;80;21105;-57
2023/01/03 08:21:23;;;;;;;22.80;17.52;;;;;;;13.99;61.69;102410.03;1746694;80;21075;-57
2023/01/03 08:23:49;;;;;;;21.10;18.02;;;;;;;14.02;61.49;102406.05;1773206;80;21557;-57
2023/01/03 08:26:16;;;;;;;17.92;16.02;;;;;;;14.05;61.36;102403.42;1752078;80;21095;-57
2023/01/03 08:28:44;;;;;;;19.32;17.23;;;;;;;14.05;61.35;102402.11;1751021;80;21043;-57
2023/01/03 08:31:24;;;;;;;19.67;16.62;;;;;;;14.04;61.40;102399.05;1755335;80;21025;-57
2023/01/03 08:33:58;;;;;;;18.45;15.63;;;;;;;14.07;61.38;102399.04;1752203;81;21094;-57
2023/01/03 08:36:26;;;;;;;20.17;15.98;;;;;;;14.12;61.10;102395.91;1765346;80;21006;-57
2023/01/03 08:38:58;;;;;;;19.80;16.20;;;;;;;14.15;60.89;102390.66;1758208;81;21511;-57
2023/01/03 08:41:27;;;;;;;18.00;15.30;;;;;;;14.18;60.74;102393.23;1715787;83;21030;-58
2023/01/03 08:43:54;;;;;;;20.45;16.55;;;;;;;14.22;60.54;102387.08;1720847;83;21094;-57
2023/01/03 08:46:22;;;;;;;18.12;16.23;;;;;;;14.24;60.30;102386.62;1722859;83;21031;-57
2023/01/03 08:48:48;;;;;;;18.12;16.23;;;;;;;14.28;60.20;102383.55;1711368;83;21473;-58
2023/01/03 08:51:15;;;;;;;20.45;15.05;;;;;;;14.29;60.10;102377.01;1703330;83;21038;-57
2023/01/03 08:53:42;;;;;;;20.77;16.57;;;;;;;14.31;59.67;102379.16;1690020;83;21066;-58
2023/01/03 08:56:08;;;;;;;20.32;15.50;;;;;;;14.32;59.74;102378.73;1711377;83;21022;-58
2023/01/03 08:58:35;;;;;;;18.52;15.28;;;;;;;14.33;59.67;102372.16;1713259;83;21121;-57
2023/01/03 09:01:03;;;;;;;20.25;16.48;;;;;;;14.37;59.49;102376.47;1698927;83;21093;-57
2023/01/03 09:03:30;;;;;;;18.80;15.38;;;;;;;14.38;59.53;102367.75;1698766;83;21035;-58
2023/01/03 09:06:02;;;;;;;16.65;14.98;;;;;;;14.41;59.38;102359.84;1690797;83;21067;-59
2023/01/03 09:08:32;;;;;;;17.17;15.30;;;;;;;14.45;59.19;102365.89;1698368;83;21138;-58
2023/01/03 09:11:07;;;;;;;19.70;15.78;;;;;;;14.49;59.14;102355.80;1664587;84;21516;-58
2023/01/03 09:13:34;;;;;;;17.90;15.63;;;;;;;14.53;58.97;102354.44;1667110;84;21092;-58
2023/01/03 09:16:08;;;;;;;19.15;14.68;;;;;;;14.58;58.88;102348.72;1669637;84;21057;-58
2023/01/03 09:18:36;;;;;;;15.78;13.40;;;;;;;14.62;58.94;102350.41;1581837;89;21145;-58
2023/01/03 09:21:03;;;;;;;13.58;12.07;;;;;;;14.66;58.50;102352.09;1574069;90;21536;-57
2023/01/03 09:23:31;;;;;;;15.25;12.90;;;;;;;14.71;58.16;102355.10;1577272;90;21726;-57
2023/01/03 09:25:58;;;;;;;14.53;12.85;;;;;;;14.74;57.95;102352.42;1576798;89;21069;-58
2023/01/03 09:28:25;;;;;;;14.35;12.93;;;;;;;14.79;57.66;102348.00;1573061;89;21135;-58
2023/01/03 09:30:52;;;;;;;14.40;12.88;;;;;;;14.81;57.60;102337.05;1578559;90;21139;-58
2023/01/03 09:33:19;;;;;;;13.93;12.40;;;;;;;14.84;57.51;102337.02;1580591;88;21102;-57
2023/01/03 09:35:46;;;;;;;14.43;12.30;;;;;;;14.85;57.16;102330.44;1582683;89;21589;-57
2023/01/03 09:38:12;;;;;;;15.38;12.30;;;;;;;14.86;57.01;102327.38;1580876;89;21050;-57
2023/01/03 09:40:42;;;;;;;13.62;12.23;;;;;;;14.85;57.07;102326.95;1567473;88;21125;-57
2023/01/03 09:43:15;;;;;;;14.85;13.35;;;;;;;14.88;57.01;102331.69;1589742;88;21068;-58
2023/01/03 09:45:51;;;;;;;13.85;12.33;;;;;;;14.90;56.95;102334.31;1589920;88;20993;-58
2023/01/03 09:48:22;;;;;;;14.25;12.68;;;;;;;14.92;56.70;102324.20;1585280;89;21575;-58
2023/01/03 09:50:48;;;;;;;15.93;12.95;;;;;;;14.94;56.69;102316.34;1576914;89;21563;-57
2023/01/03 10:05:16;;;;;;;15.53;13.20;;;;;;;15.19;56.35;102322.91;1447461;98;21776;-58
2023/01/03 10:08:03;;;;;;;14.85;12.90;;;;;;;15.24;56.23;102316.73;1500327;92;21161;-58
2023/01/03 10:10:47;;;;;;;15.10;13.50;;;;;;;15.28;55.88;102315.78;1507435;92;21164;-58
2023/01/03 10:13:37;;;;;;;14.13;12.65;;;;;;;15.31;55.81;102314.87;1446980;97;21123;-58
2023/01/03 10:16:19;;;;;;;14.03;12.55;;;;;;;15.33;55.70;102311.78;1424851;98;21191;-58
2023/01/03 10:19:06;;;;;;;14.28;12.35;;;;;;;15.33;55.59;102313.09;1459817;97;21092;-58
2023/01/03 10:22:11;;;;;;;14.45;12.95;;;;;;;15.34;55.58;102299.94;1427822;99;21219;-58
2023/01/03 10:24:52;;;;;;;13.35;11.97;;;;;;;15.35;55.49;102300.81;1393778;101;21152;-58
2023/01/03 10:27:23;;;;;;;14.10;12.60;;;;;;;15.37;55.70;102291.16;1327038;105;21195;-58
2023/01/03 10:29:54;;;;;;;13.58;12.15;;;;;;;15.40;55.65;102291.09;1329499;106;21203;-58
2023/01/03 10:48:45;;;;;;;14.68;13.18;;;;;;;13.94;62.54;102279.65;1786172;78;26634;-57
2023/01/03 10:51:45;;;;;;;14.58;13.08;;;;;;;15.09;58.31;102272.39;1763948;80;21029;-57
2023/01/03 10:54:35;;;;;;;14.30;12.80;;;;;;;15.33;57.37;102267.20;1758856;80;21035;-57
2023/01/03 10:57:04;;;;;;;13.15;11.85;;;;;;;15.41;56.92;102266.61;1749006;80;21648;-58
2023/01/03 10:59:32;;;;;;;13.65;12.28;;;;;;;15.45;56.72;102263.07;1750593;80;21068;-58
2023/01/03 11:02:15;;;;;;;15.98;12.23;;;;;;;15.50;56.67;102257.28;1757693;80;21643;-57
2023/01/03 11:04:42;;;;;;;15.98;12.60;;;;;;;15.54;56.58;102253.70;1752754;80;21618;-57
2023/01/03 11:07:15;;;;;;;13.72;12.33;;;;;;;15.60;56.45;102254.06;1742130;80;21073;-57
2023/01/03 11:09:51;;;;;;;14.98;13.43;;;;;;;15.63;56.48;102254.86;1761465;80;21073;-58
2023/01/03 11:12:38;;;;;;;14.25;12.73;;;;;;;15.69;56.43;102251.24;1762385;79;21065;-58
2023/01/03 11:15:31;;;;;;;14.28;12.88;;;;;;;15.74;56.30;102255.53;1748969;80;21065;-59
2023/01/03 11:18:00;;;;;;;;;;;;;;;15.79;56.29;102251.04;1667739;84;21197;-59
2023/01/03 11:21:13;;;;;;;13.30;12.00;;;;;;;15.85;56.31;102252.67;1661886;84;20139;-59
2023/01/03 11:24:03;;;;;;;14.18;12.70;;;;;;;15.89;56.23;102247.33;1668208;84;21113;-59
2023/01/03 11:26:41;;;;;;;15.05;13.45;;;;;;;15.94;56.18;102245.50;1625630;86;21133;-59
2023/01/03 11:29:25;;;;;;;14.75;13.05;;;;;;;15.92;55.17;102249.05;1623302;86;21126;-59
2023/01/03 11:32:15;;;;;;;14.90;13.30;;;;;;;15.83;54.50;102243.52;1632332;86;21085;-59
2023/01/03 11:35:28;;;;;;;14.73;13.32;;;;;;;15.66;53.63;102246.91;1628643;87;21132;-57
2023/01/03 11:38:03;;;;;;;16.00;14.30;;;;;;;15.42;53.06;102246.03;1624911;86;21099;-57
2023/01/03 11:41:09;;;;;;;18.92;15.35;;;;;;;15.13;53.28;102252.22;1622142;87;21110;-57
2023/01/03 11:44:01;;;;;;;17.12;14.38;;;;;;;14.96;53.69;102249.03;1627737;86;21168;-57
2023/01/03 11:46:56;;;;;;;16.07;14.38;;;;;;;14.86;54.00;102250.07;1617367;87;21147;-57
2023/01/03 11:49:58;;;;;;;20.08;15.35;;;;;;;14.77;54.16;102249.77;1620191;87;21633;-56
2023/01/03 11:52:28;;;;;;;;;;;;;;;14.68;54.41;102249.45;1630132;86;21061;-57
2023/01/03 11:55:33;;;;;;;18.62;15.78;;;;;;;14.58;54.79;102242.63;1636620;87;20116;-57
2023/01/03 11:58:20;;;;;;;17.55;15.63;;;;;;;14.55;54.98;102241.78;1623283;86;21580;-56
2023/01/03 12:01:27;;;;;;;17.75;15.98;;;;;;;14.52;55.07;102246.64;1621609;87;21059;-56
2023/01/03 12:04:39;;;;;;;15.63;13.90;;;;;;;14.51;55.33;102245.33;1576693;89;21562;-56
2023/01/03 12:07:29;;;;;;;16.40;14.63;;;;;;;14.58;55.62;102241.31;1499186;93;21094;-56
2023/01/03 12:10:20;;;;;;;16.50;14.80;;;;;;;14.73;55.61;102237.60;1492630;93;21133;-56
2023/01/03 12:13:05;;;;;;;18.25;15.98;;;;;;;14.85;55.26;102240.46;1478051;95;21122;-57
2023/01/03 12:15:46;;;;;;;16.50;14.75;;;;;;;14.93;55.03;102242.08;1484421;94;21151;-56
2023/01/03 12:18:42;;;;;;;16.27;14.53;;;;;;;15.02;54.77;102235.82;1565508;89;21093;-56
2023/01/03 12:21:36;;;;;;;17.95;15.00;;;;;;;15.08;54.58;102242.27;1529970;92;21647;-56
2023/01/03 12:24:23;;;;;;;16.02;14.35;;;;;;;15.15;54.53;102239.95;1562055;89;21101;-56
2023/01/03 12:26:56;;;;;;;18.10;15.15;;;;;;;15.21;54.37;102239.84;1564821;90;21043;-56
2023/01/03 12:29:28;;;;;;;17.42;15.30;;;;;;;15.25;54.18;102241.55;1563462;90;21074;-56
2023/01/03 12:32:07;;;;;;;16.67;14.85;;;;;;;15.33;54.07;102242.28;1562756;91;21117;-58
2023/01/03 12:34:59;;;;;;;18.70;14.13;;;;;;;15.37;53.65;102243.95;1561740;91;21100;-57
2023/01/03 12:37:29;;;;;;;;;;;;;;;15.38;53.54;102243.92;1560717;90;21122;-57
2023/01/03 12:40:05;;;;;;;15.60;13.85;;;;;;;15.38;53.26;102243.05;1515541;91;20134;-57
2023/01/03 12:42:58;;;;;;;15.58;13.98;;;;;;;15.34;53.23;102236.13;1549529;91;21090;-56
2023/01/03 12:45:33;;;;;;;15.65;13.93;;;;;;;15.32;53.35;102240.53;1555570;90;21109;-56
2023/01/03 12:48:08;;;;;;;15.50;13.32;;;;;;;15.32;53.29;102235.28;1517959;93;21166;-56
2023/01/03 12:50:49;;;;;;;14.63;13.13;;;;;;;15.28;53.28;102237.11;1520447;93;21055;-56